createdAt,value
2023-04-15T00:00:58.870Z,6.55
2023-04-15T00:03:25.689Z,6.63
2023-04-15T00:05:52.722Z,6.38
2023-04-15T00:08:19.576Z,6.50
2023-04-15T00:10:46.738Z,5.70
2023-04-15T00:13:13.395Z,6.65
2023-04-15T00:15:39.838Z,6.45
2023-04-15T00:18:07.964Z,6.03
2023-04-15T00:20:35.259Z,6.28
2023-04-15T00:23:02.508Z,6.55
2023-04-15T00:25:29.086Z,6.88
2023-04-15T00:27:55.529Z,6.75
2023-04-15T00:30:22.019Z,5.97
2023-04-15T00:32:49.557Z,6.88
2023-04-15T00:35:16.504Z,5.88
2023-04-15T00:37:44.812Z,5.32
2023-04-15T00:40:13.669Z,6.43
2023-04-15T00:42:40.170Z,5.57
2023-04-15T00:45:08.759Z,5.45
2023-04-15T00:47:37.223Z,5.80
2023-04-15T00:50:03.915Z,7.18
2023-04-15T00:52:30.845Z,5.88
2023-04-15T00:54:57.629Z,7.60
2023-04-15T00:57:24.142Z,7.53
2023-04-15T00:59:52.576Z,6.50
2023-04-15T01:02:19.206Z,6.25
2023-04-15T01:04:45.644Z,6.78
2023-04-15T01:07:12.023Z,5.70
2023-04-15T01:09:38.589Z,6.43
2023-04-15T01:12:05.885Z,6.22
2023-04-15T01:14:33.568Z,6.38
2023-04-15T01:17:00.176Z,5.85
2023-04-15T01:19:27.341Z,6.40
2023-04-15T01:21:54.003Z,8.25
2023-04-15T01:24:21.212Z,10.05
2023-04-15T01:26:49.760Z,9.32
2023-04-15T01:29:16.585Z,9.18
2023-04-15T01:31:51.019Z,7.53
2023-04-15T01:34:17.632Z,6.80
2023-04-15T01:36:44.042Z,8.07
2023-04-15T01:39:10.424Z,7.82
2023-04-15T01:41:36.812Z,7.18
2023-04-15T01:44:03.270Z,7.35
2023-04-15T01:46:29.749Z,6.45
2023-04-15T01:48:56.567Z,7.53
2023-04-15T01:51:23.214Z,6.90
2023-04-15T01:53:49.693Z,6.82
2023-04-15T01:56:16.973Z,6.85
2023-04-15T01:58:43.414Z,6.70
2023-04-15T02:01:11.391Z,6.60
2023-04-15T02:03:39.416Z,7.82
2023-04-15T02:06:06.127Z,7.30
2023-04-15T02:08:32.555Z,8.75
2023-04-15T02:10:59.001Z,7.25
2023-04-15T02:13:25.447Z,7.45
2023-04-15T02:15:52.977Z,7.75
2023-04-15T02:18:19.374Z,6.68
2023-04-15T02:20:46.912Z,7.80
2023-04-15T02:23:13.507Z,9.00
2023-04-15T02:25:39.991Z,7.88
2023-04-15T02:28:06.670Z,7.40
2023-04-15T02:30:33.998Z,7.65
2023-04-15T02:33:01.765Z,7.50
2023-04-15T02:35:28.300Z,10.10
2023-04-15T02:37:54.778Z,7.90
2023-04-15T02:40:21.594Z,7.63
2023-04-15T02:42:48.056Z,7.95
2023-04-15T02:45:14.597Z,7.70
2023-04-15T02:47:41.613Z,8.00
2023-04-15T02:50:09.901Z,8.48
2023-04-15T02:52:36.372Z,8.02
2023-04-15T02:55:04.290Z,9.80
2023-04-15T02:57:30.935Z,7.70
2023-04-15T02:59:57.389Z,7.15
2023-04-15T03:02:24.333Z,7.88
2023-04-15T03:04:51.156Z,7.70
2023-04-15T03:07:18.257Z,7.55
2023-04-15T03:09:45.852Z,7.28
2023-04-15T03:12:12.326Z,8.15
2023-04-15T03:14:38.728Z,7.93
2023-04-15T03:17:05.135Z,7.72
2023-04-15T03:19:31.874Z,8.73
2023-04-15T03:21:58.292Z,9.38
2023-04-15T03:24:24.939Z,8.85
2023-04-15T03:26:51.448Z,8.13
2023-04-15T03:29:17.855Z,9.23
2023-04-15T03:31:44.260Z,8.80
2023-04-15T03:34:10.734Z,8.25
2023-04-15T03:36:37.223Z,8.90
2023-04-15T03:39:04.263Z,9.35
2023-04-15T03:41:30.985Z,8.88
2023-04-15T03:43:57.471Z,10.27
2023-04-15T03:46:24.002Z,9.93
2023-04-15T03:48:50.560Z,10.10
2023-04-15T03:51:16.999Z,8.95
2023-04-15T03:53:43.418Z,9.45
2023-04-15T03:56:09.897Z,8.68
2023-04-15T03:58:36.583Z,9.15
2023-04-15T04:01:03.235Z,9.27
2023-04-15T04:03:29.884Z,9.13
2023-04-15T04:05:56.650Z,8.18
2023-04-15T04:08:23.093Z,8.88
2023-04-15T04:10:49.487Z,9.00
2023-04-15T04:13:15.901Z,8.45
2023-04-15T04:15:42.375Z,8.77
2023-04-15T04:18:08.910Z,8.02
2023-04-15T04:20:35.579Z,9.77
2023-04-15T04:23:01.948Z,8.38
2023-04-15T04:25:28.518Z,7.85
2023-04-15T04:27:54.970Z,8.52
2023-04-15T04:30:21.440Z,9.48
2023-04-15T04:32:49.570Z,9.15
2023-04-15T04:35:16.103Z,8.75
2023-04-15T04:37:42.619Z,8.90
2023-04-15T04:40:09.559Z,8.18
2023-04-15T04:42:38.012Z,8.13
2023-04-15T04:45:06.181Z,8.50
2023-04-15T04:47:32.588Z,8.55
2023-04-15T04:49:59.000Z,8.90
2023-04-15T04:52:25.600Z,7.20
2023-04-15T04:54:52.013Z,8.02
2023-04-15T04:57:18.530Z,8.32
2023-04-15T04:59:44.986Z,8.20
2023-04-15T05:02:11.456Z,8.48
2023-04-15T05:04:37.878Z,8.02
2023-04-15T05:07:04.300Z,9.35
2023-04-15T05:09:32.460Z,8.07
2023-04-15T05:11:59.403Z,8.50
2023-04-15T05:14:25.998Z,8.45
2023-04-15T05:16:52.429Z,7.93
2023-04-15T05:19:18.798Z,8.55
2023-04-15T05:21:45.274Z,7.95
2023-04-15T05:24:11.660Z,9.48
2023-04-15T05:26:38.045Z,9.25
2023-04-15T05:29:04.641Z,9.23
2023-04-15T05:31:31.351Z,9.88
2023-04-15T05:33:57.904Z,8.55
2023-04-15T05:36:24.296Z,8.23
2023-04-15T05:38:50.895Z,9.02
2023-04-15T05:41:19.763Z,7.72
2023-04-15T05:43:46.420Z,8.30
2023-04-15T05:46:12.918Z,8.10
2023-04-15T05:48:39.481Z,7.82
2023-04-15T05:51:06.458Z,7.65
2023-04-15T05:53:32.962Z,7.35
2023-04-15T05:55:59.386Z,8.20
2023-04-15T05:58:26.082Z,7.88
2023-04-15T06:00:52.984Z,8.10
2023-04-15T06:03:19.684Z,8.32
2023-04-15T06:05:46.184Z,8.40
2023-04-15T06:08:12.570Z,8.23
2023-04-15T06:10:39.058Z,8.95
2023-04-15T06:13:05.985Z,6.57
2023-04-15T06:15:32.468Z,6.32
2023-04-15T06:17:59.347Z,7.30
2023-04-15T06:20:26.147Z,6.95
2023-04-15T06:22:52.707Z,5.97
2023-04-15T06:25:19.127Z,5.57
2023-04-15T06:27:46.405Z,6.78
2023-04-15T06:30:12.919Z,7.95
2023-04-15T06:32:39.554Z,6.20
2023-04-15T06:35:06.152Z,5.82
2023-04-15T06:37:32.715Z,6.40
2023-04-15T06:39:59.106Z,6.03
2023-04-15T06:42:25.695Z,7.20
2023-04-15T06:44:52.203Z,6.18
2023-04-15T06:47:19.710Z,6.63
2023-04-15T06:49:46.241Z,6.65
2023-04-15T06:52:13.590Z,5.75
2023-04-15T06:54:40.584Z,5.30
2023-04-15T06:57:07.747Z,5.45
2023-04-15T06:59:34.181Z,5.85
2023-04-15T07:02:00.833Z,4.88
2023-04-15T07:04:31.894Z,5.45
2023-04-15T07:06:58.515Z,6.03
2023-04-15T07:09:25.680Z,5.93
2023-04-15T07:11:52.469Z,5.05
2023-04-15T07:14:18.991Z,5.28
2023-04-15T07:16:45.617Z,5.63
2023-04-15T07:19:12.655Z,4.82
2023-04-15T07:21:41.785Z,4.50
2023-04-15T07:24:10.765Z,4.78
2023-04-15T07:26:37.412Z,5.85
2023-04-15T07:29:04.283Z,4.97
2023-04-15T07:31:31.610Z,5.05
2023-04-15T07:33:58.702Z,4.35
2023-04-15T07:36:25.710Z,4.32
2023-04-15T07:38:52.895Z,3.78
2023-04-15T07:41:20.444Z,5.03
2023-04-15T07:43:47.068Z,4.97
2023-04-15T07:46:13.524Z,3.55
2023-04-15T07:48:40.139Z,5.07
2023-04-15T07:51:06.856Z,4.05
2023-04-15T07:53:33.617Z,3.88
2023-04-15T07:56:00.283Z,3.85
2023-04-15T07:58:27.383Z,3.95
2023-04-15T08:00:55.203Z,3.72
2023-04-15T08:03:22.847Z,3.40
2023-04-15T08:05:49.616Z,4.30
2023-04-15T08:08:16.742Z,4.40
2023-04-15T08:10:43.266Z,3.53
2023-04-15T08:13:09.771Z,3.70
2023-04-15T08:15:36.387Z,3.20
2023-04-15T08:18:02.854Z,3.28
2023-04-15T08:20:29.939Z,3.80
2023-04-15T08:22:56.372Z,3.75
2023-04-15T08:25:23.016Z,3.72
2023-04-15T08:27:49.518Z,3.47
2023-04-15T08:30:16.071Z,4.07
2023-04-15T08:32:46.900Z,4.10
2023-04-15T08:35:13.984Z,3.65
2023-04-15T08:37:40.439Z,4.88
2023-04-15T08:40:08.493Z,4.13
2023-04-15T08:42:42.875Z,5.15
2023-04-15T08:45:13.269Z,5.57
2023-04-15T08:47:40.476Z,5.05
2023-04-15T08:50:09.522Z,4.75
2023-04-15T08:52:36.325Z,5.60
2023-04-15T08:55:03.525Z,4.55
2023-04-15T08:57:30.043Z,5.18
2023-04-15T08:59:57.343Z,7.03
2023-04-15T09:02:26.342Z,4.97
2023-04-15T09:04:53.251Z,4.63
2023-04-15T09:07:19.701Z,5.25
2023-04-15T09:09:46.172Z,4.88
2023-04-15T09:12:15.159Z,4.53
2023-04-15T09:14:43.383Z,4.93
2023-04-15T09:17:10.537Z,6.07
2023-04-15T09:19:36.960Z,5.15
2023-04-15T09:22:03.996Z,6.40
2023-04-15T09:24:42.133Z,4.90
2023-04-15T09:27:09.239Z,5.95
2023-04-15T09:29:36.940Z,5.45
2023-04-15T09:32:15.120Z,5.13
2023-04-15T09:34:41.884Z,5.80
2023-04-15T09:37:10.806Z,5.43
2023-04-15T09:39:48.543Z,5.63
2023-04-15T09:42:15.715Z,6.03
2023-04-15T09:44:42.186Z,6.63
2023-04-15T09:47:08.628Z,6.55
2023-04-15T09:49:35.094Z,5.18
2023-04-15T09:52:06.286Z,6.18
2023-04-15T09:54:35.062Z,6.18
2023-04-15T09:57:06.452Z,7.03
2023-04-15T09:59:32.932Z,6.55
2023-04-15T10:01:59.768Z,5.28
2023-04-15T10:04:28.246Z,6.65
2023-04-15T10:06:54.899Z,7.03
2023-04-15T10:09:21.692Z,6.85
2023-04-15T10:11:50.224Z,6.47
2023-04-15T10:14:18.306Z,6.32
2023-04-15T10:16:48.970Z,7.00
2023-04-15T10:19:17.812Z,8.10
2023-04-15T10:21:45.158Z,6.28
2023-04-15T10:24:12.162Z,6.60
2023-04-15T10:26:38.722Z,7.53
2023-04-15T10:29:05.616Z,6.68
2023-04-15T10:31:32.821Z,5.93
2023-04-15T10:34:04.072Z,6.80
2023-04-15T10:36:31.021Z,6.05
2023-04-15T10:38:57.683Z,5.28
2023-04-15T10:41:26.809Z,5.57
2023-04-15T10:44:01.231Z,6.80
2023-04-15T10:46:39.996Z,6.75
2023-04-15T10:49:13.589Z,5.80
2023-04-15T10:51:45.758Z,5.60
2023-04-15T10:54:38.846Z,5.38
2023-04-15T10:57:05.940Z,6.80
2023-04-15T10:59:59.624Z,5.90
2023-04-15T11:02:52.080Z,5.82
2023-04-15T11:05:19.859Z,5.97
2023-04-15T11:07:48.880Z,5.97
2023-04-15T11:10:18.483Z,7.63
2023-04-15T11:12:45.952Z,7.03
2023-04-15T11:15:37.892Z,8.27
2023-04-15T11:18:16.390Z,8.23
2023-04-15T11:20:47.448Z,7.35
2023-04-15T11:23:28.624Z,8.60
2023-04-15T11:28:26.625Z,7.85
2023-04-15T11:30:54.307Z,7.80
2023-04-15T11:33:21.148Z,7.30
2023-04-15T11:35:47.926Z,6.32
2023-04-15T11:38:16.554Z,7.85
2023-04-15T11:40:46.160Z,8.45
2023-04-15T11:43:20.758Z,8.68
2023-04-15T11:46:00.912Z,7.55
2023-04-15T11:48:29.612Z,8.55
2023-04-15T11:50:59.975Z,7.13
2023-04-15T11:53:43.185Z,7.03
2023-04-15T11:56:11.592Z,8.75
2023-04-15T11:58:39.109Z,6.65
2023-04-15T12:01:07.150Z,5.88
2023-04-15T12:03:39.369Z,5.97
2023-04-15T12:06:12.728Z,6.85
2023-04-15T12:08:59.104Z,6.10
2023-04-15T12:11:53.738Z,6.10
2023-04-15T12:14:30.706Z,6.25
2023-04-15T12:17:00.139Z,9.32
2023-04-15T12:19:29.434Z,6.78
2023-04-15T12:22:01.630Z,6.95
2023-04-15T12:24:30.898Z,6.20
2023-04-15T12:26:58.237Z,6.85
2023-04-15T12:29:29.223Z,7.47
2023-04-15T12:34:39.462Z,7.30
2023-04-15T12:37:09.482Z,8.23
2023-04-15T12:39:37.901Z,7.72
2023-04-15T12:42:05.336Z,6.85
2023-04-15T12:44:33.200Z,6.43
2023-04-15T12:47:00.373Z,6.97
2023-04-15T12:49:27.728Z,5.80
2023-04-15T12:51:56.446Z,5.97
2023-04-15T12:54:23.151Z,7.22
2023-04-15T12:56:50.512Z,7.80
2023-04-15T12:59:18.562Z,7.60
2023-04-15T13:01:46.531Z,7.30
2023-04-15T13:04:13.090Z,7.47
2023-04-15T13:06:39.945Z,7.35
2023-04-15T13:09:06.833Z,8.98
2023-04-15T13:11:33.968Z,8.50
2023-04-15T13:14:08.358Z,8.07
2023-04-15T13:16:35.572Z,6.72
2023-04-15T13:19:03.869Z,8.45
2023-04-15T13:21:32.241Z,9.07
2023-04-15T13:23:59.492Z,8.23
2023-04-15T13:26:26.535Z,6.95
2023-04-15T13:28:53.212Z,6.00
2023-04-15T13:31:19.920Z,6.28
2023-04-15T13:33:46.468Z,7.32
2023-04-15T13:36:12.895Z,7.57
2023-04-15T13:38:39.337Z,8.07
2023-04-15T13:41:06.042Z,7.30
2023-04-15T13:43:34.254Z,7.18
2023-04-15T13:46:01.288Z,8.48
2023-04-15T13:48:28.756Z,8.40
2023-04-15T13:50:55.179Z,9.82
2023-04-15T13:53:21.726Z,11.02
2023-04-15T13:56:02.522Z,12.27
2023-04-15T13:58:29.226Z,10.45
2023-04-15T14:00:56.001Z,9.50
2023-04-15T14:03:22.759Z,11.15
2023-04-15T14:05:55.782Z,11.05
2023-04-15T14:08:22.933Z,10.05
2023-04-15T14:10:49.655Z,9.15
2023-04-15T14:13:16.220Z,9.95
2023-04-15T14:15:42.785Z,9.52
2023-04-15T14:18:09.464Z,9.95
2023-04-15T14:20:36.226Z,10.27
2023-04-15T14:23:02.834Z,9.38
2023-04-15T14:25:33.807Z,9.18
2023-04-15T14:28:01.527Z,8.98
2023-04-15T14:30:28.054Z,7.88
2023-04-15T14:32:54.601Z,8.50
2023-04-15T14:35:21.274Z,8.05
2023-04-15T14:37:47.801Z,8.70
2023-04-15T14:40:14.296Z,6.88
2023-04-15T14:42:40.805Z,12.40
2023-04-15T14:45:07.957Z,8.70
2023-04-15T14:47:34.565Z,8.20
2023-04-15T14:50:01.472Z,7.82
2023-04-15T14:52:28.193Z,8.15
2023-04-15T14:54:54.775Z,10.00
2023-04-15T14:57:21.649Z,8.90
2023-04-15T14:59:48.050Z,10.38
2023-04-15T15:02:17.364Z,8.50
2023-04-15T15:04:53.065Z,8.30
2023-04-15T15:07:19.714Z,8.48
2023-04-15T15:09:46.247Z,10.63
2023-04-15T15:12:12.648Z,10.75
2023-04-15T15:14:39.104Z,8.38
2023-04-15T15:17:05.777Z,8.43
2023-04-15T15:19:32.244Z,9.35
2023-04-15T15:21:58.782Z,8.35
2023-04-15T15:24:25.248Z,8.38
2023-04-15T15:26:51.826Z,8.45
2023-04-15T15:29:18.248Z,8.50
2023-04-15T15:31:44.714Z,7.18
2023-04-15T15:34:11.232Z,7.95
2023-04-15T15:36:37.661Z,7.75
2023-04-15T15:39:05.061Z,7.90
2023-04-15T15:41:33.311Z,7.25
2023-04-15T15:43:59.964Z,7.50
2023-04-15T15:46:28.084Z,6.72
2023-04-15T15:48:54.700Z,7.38
2023-04-15T15:51:21.182Z,7.03
2023-04-15T15:53:47.901Z,6.82
2023-04-15T15:56:14.374Z,7.70
2023-04-15T15:58:41.741Z,6.88
2023-04-15T16:01:08.315Z,7.47
2023-04-15T16:03:34.852Z,7.05
2023-04-15T16:06:01.662Z,8.25
2023-04-15T16:08:28.136Z,7.70
2023-04-15T16:10:54.857Z,9.35
2023-04-15T16:13:22.314Z,7.53
2023-04-15T16:15:51.991Z,7.82
2023-04-15T16:18:18.486Z,8.95
2023-04-15T16:20:44.963Z,8.38
2023-04-15T16:23:16.884Z,8.63
2023-04-15T16:25:44.603Z,8.73
2023-04-15T16:28:25.209Z,9.23
2023-04-15T16:30:52.712Z,8.15
2023-04-15T16:33:19.226Z,9.77
2023-04-15T16:35:45.804Z,8.68
2023-04-15T16:38:12.394Z,9.15
2023-04-15T16:40:38.895Z,9.43
2023-04-15T16:43:07.379Z,11.15
2023-04-15T16:45:33.863Z,13.05
2023-04-15T16:48:00.397Z,11.70
2023-04-15T16:50:27.145Z,12.02
2023-04-15T16:52:53.733Z,10.23
2023-04-15T16:55:20.389Z,7.80
2023-04-15T16:58:01.220Z,6.38
2023-04-15T17:00:29.488Z,5.30
2023-04-15T17:02:56.151Z,5.32
2023-04-15T17:05:22.810Z,5.07
2023-04-15T17:07:49.388Z,5.20
2023-04-15T17:10:16.159Z,6.72
2023-04-15T17:12:42.688Z,5.18
2023-04-15T17:15:09.814Z,5.43
2023-04-15T17:17:36.436Z,5.95
2023-04-15T17:20:03.696Z,5.78
2023-04-15T17:22:30.170Z,5.78
2023-04-15T17:24:56.908Z,6.38
2023-04-15T17:27:24.690Z,6.40
2023-04-15T17:29:51.387Z,7.00
2023-04-15T17:32:17.852Z,6.45
2023-04-15T17:34:50.044Z,4.70
2023-04-15T17:37:17.761Z,10.98
2023-04-15T17:39:44.273Z,5.82
2023-04-15T17:42:11.354Z,4.68
2023-04-15T17:44:37.770Z,4.35
2023-04-15T17:47:04.243Z,5.57
2023-04-15T17:49:31.314Z,4.30
2023-04-15T17:51:57.780Z,5.03
2023-04-15T17:54:24.220Z,4.55
2023-04-15T17:56:50.652Z,4.10
2023-04-15T17:59:17.353Z,5.10
2023-04-15T18:01:45.354Z,4.50
2023-04-15T18:04:12.450Z,4.90
2023-04-15T18:06:39.256Z,6.13
2023-04-15T18:09:06.591Z,11.48
2023-04-15T18:11:33.518Z,6.13
2023-04-15T18:14:02.397Z,4.75
2023-04-15T18:16:28.966Z,3.70
2023-04-15T18:18:55.603Z,5.32
2023-04-15T18:21:22.133Z,4.65
2023-04-15T18:23:48.506Z,4.10
2023-04-15T18:26:14.901Z,5.03
2023-04-15T18:28:41.336Z,3.78
2023-04-15T18:31:07.805Z,3.85
2023-04-15T18:33:35.739Z,4.47
2023-04-15T18:36:05.103Z,3.85
2023-04-15T18:38:31.803Z,3.20
2023-04-15T18:40:58.777Z,2.97
2023-04-15T18:43:25.289Z,3.22
2023-04-15T18:45:54.509Z,2.67
2023-04-15T18:48:21.119Z,2.53
2023-04-15T18:50:48.164Z,2.95
2023-04-15T18:53:15.340Z,2.92
2023-04-15T18:55:41.798Z,2.45
2023-04-15T18:58:09.356Z,3.22
2023-04-15T19:00:39.066Z,3.13
2023-04-15T19:03:06.359Z,3.13
2023-04-15T19:05:33.212Z,3.30
2023-04-15T19:07:59.868Z,2.90
2023-04-15T19:10:27.981Z,3.88
2023-04-15T19:12:55.151Z,3.45
2023-04-15T19:15:21.687Z,3.28
2023-04-15T19:17:48.213Z,3.20
2023-04-15T19:20:14.696Z,3.13
2023-04-15T19:22:42.947Z,4.03
2023-04-15T19:25:09.671Z,3.88
2023-04-15T19:27:38.062Z,3.70
2023-04-15T19:30:08.003Z,2.95
2023-04-15T19:32:35.425Z,3.60
2023-04-15T19:35:01.933Z,3.60
2023-04-15T19:37:28.852Z,4.10
2023-04-15T19:39:56.032Z,4.00
2023-04-15T19:42:22.584Z,4.20
2023-04-15T19:44:48.996Z,4.15
2023-04-15T19:47:15.450Z,3.72
2023-04-15T19:49:41.941Z,6.47
2023-04-15T19:52:08.653Z,4.30
2023-04-15T19:54:35.128Z,4.32
2023-04-15T19:57:02.092Z,3.60
2023-04-15T19:59:28.638Z,5.10
2023-04-15T20:01:55.186Z,5.05
2023-04-15T20:04:22.584Z,5.60
2023-04-15T20:06:50.510Z,4.43
2023-04-15T20:09:17.405Z,3.90
2023-04-15T20:12:06.188Z,5.25
2023-04-15T20:14:31.383Z,4.57
2023-04-15T20:17:01.951Z,4.55
2023-04-15T20:19:28.870Z,4.95
2023-04-15T20:21:56.264Z,4.45
2023-04-15T20:24:24.861Z,4.30
2023-04-15T20:26:52.275Z,4.47
2023-04-15T20:29:18.714Z,4.22
2023-04-15T20:31:45.427Z,4.30
2023-04-15T20:34:12.318Z,4.65
2023-04-15T20:36:38.875Z,3.95
2023-04-15T20:39:05.549Z,5.10
2023-04-15T20:41:32.185Z,5.05
2023-04-15T20:43:58.610Z,4.93
2023-04-15T20:46:27.359Z,5.35
2023-04-15T20:48:54.382Z,4.63
2023-04-15T20:51:20.875Z,5.15
2023-04-15T20:53:47.308Z,5.53
2023-04-15T20:56:13.725Z,5.15
2023-04-15T20:58:40.270Z,6.00
2023-04-15T21:01:06.795Z,4.43
2023-04-15T21:03:33.370Z,5.60
2023-04-15T21:06:00.325Z,4.90
2023-04-15T21:08:29.690Z,5.45
2023-04-15T21:10:56.884Z,4.63
2023-04-15T21:13:24.162Z,5.07
2023-04-15T21:15:53.395Z,6.70
2023-04-15T21:18:21.537Z,5.20
2023-04-15T21:20:59.598Z,5.35
2023-04-15T21:23:28.519Z,5.22
2023-04-15T21:25:55.706Z,4.75
2023-04-15T21:28:22.426Z,5.15
2023-04-15T21:30:49.535Z,4.80
2023-04-15T21:33:16.636Z,5.65
2023-04-15T21:35:43.085Z,4.22
2023-04-15T21:38:09.510Z,5.30
2023-04-15T21:40:40.271Z,4.57
2023-04-15T21:43:07.691Z,5.40
2023-04-15T21:45:34.785Z,3.72
2023-04-15T21:48:07.662Z,4.65
2023-04-15T21:50:39.268Z,6.70
2023-04-15T21:53:07.700Z,5.75
2023-04-15T21:55:34.283Z,5.13
2023-04-15T21:58:00.892Z,5.10
2023-04-15T22:00:27.667Z,5.75
2023-04-15T22:02:54.142Z,5.30
2023-04-15T22:05:20.713Z,4.75
2023-04-15T22:07:47.211Z,4.97
2023-04-15T22:10:13.621Z,5.63
2023-04-15T22:12:41.882Z,5.13
2023-04-15T22:15:08.741Z,4.15
2023-04-15T22:17:35.338Z,5.10
2023-04-15T22:20:02.059Z,4.38
2023-04-15T22:22:43.592Z,4.50
2023-04-15T22:25:11.258Z,4.32
2023-04-15T22:27:37.660Z,5.13
2023-04-15T22:30:04.717Z,5.07
2023-04-15T22:32:31.276Z,5.57
2023-04-15T22:34:57.655Z,4.97
2023-04-15T22:37:24.184Z,4.78
2023-04-15T22:39:51.777Z,5.22
2023-04-15T22:42:18.202Z,4.22
2023-04-15T22:44:44.682Z,4.40
2023-04-15T22:47:11.180Z,4.63
2023-04-15T22:49:37.602Z,5.72
2023-04-15T22:52:04.137Z,4.28
2023-04-15T22:54:30.677Z,4.22
2023-04-15T22:56:57.810Z,7.05
2023-04-15T22:59:24.522Z,6.72
2023-04-15T23:01:51.121Z,6.10
2023-04-15T23:04:25.172Z,6.25
2023-04-15T23:06:52.451Z,5.00
2023-04-15T23:09:18.848Z,5.65
2023-04-15T23:11:45.485Z,5.35
2023-04-15T23:14:11.901Z,5.82
2023-04-15T23:16:38.344Z,5.10
2023-04-15T23:19:04.883Z,6.13
2023-04-15T23:21:31.404Z,6.25
2023-04-15T23:23:57.776Z,5.93
2023-04-15T23:26:24.253Z,5.47
2023-04-15T23:28:50.678Z,5.15
2023-04-15T23:31:17.189Z,5.47
2023-04-15T23:33:43.573Z,5.40
2023-04-15T23:36:09.976Z,6.13
2023-04-15T23:38:36.377Z,6.05
2023-04-15T23:41:02.773Z,4.88
2023-04-15T23:43:29.166Z,5.28
2023-04-15T23:45:55.581Z,4.63
2023-04-15T23:48:23.617Z,5.05
2023-04-15T23:50:50.431Z,4.80
2023-04-15T23:53:17.516Z,5.45
2023-04-15T23:55:43.962Z,4.72
2023-04-15T23:58:10.763Z,4.13
